sensor_id;sensor_type;location;lat;lon;timestamp;temperature;humidity
30889;DHT22;51092;50.874;7.024;2023-09-08T00:00:11;18.40;99.90
30889;DHT22;51092;50.874;7.024;2023-09-08T00:01:13;18.40;99.90
30889;DHT22;51092;50.874;7.024;2023-09-08T00:02:16;18.40;99.90
30889;DHT22;51092;50.874;7.024;2023-09-08T00:03:19;18.30;99.90
30889;DHT22;51092;50.874;7.024;2023-09-08T00:04:22;18.30;99.90
30889;DHT22;51092;50.874;7.024;2023-09-08T00:05:25;18.30;99.90
30889;DHT22;51092;50.874;7.024;2023-09-08T00:06:26;18.30;99.90
30889;DHT22;51092;50.874;7.024;2023-09-08T00:07:29;18.30;99.90
30889;DHT22;51092;50.874;7.024;2023-09-08T00:08:30;18.20;99.90
30889;DHT22;51092;50.874;7.024;2023-09-08T00:09:31;18.20;99.90
30889;DHT22;51092;50.874;7.024;2023-09-08T00:10:34;18.20;99.90
30889;DHT22;51092;50.874;7.024;2023-09-08T00:11:35;18.20;99.90
30889;DHT22;51092;50.874;7.024;2023-09-08T00:12:38;18.20;99.90
30889;DHT22;51092;50.874;7.024;2023-09-08T00:13:39;18.20;99.90
30889;DHT22;51092;50.874;7.024;2023-09-08T00:14:43;18.10;99.90
30889;DHT22;51092;50.874;7.024;2023-09-08T00:15:44;18.10;99.90
30889;DHT22;51092;50.874;7.024;2023-09-08T00:16:47;18.10;99.90
30889;DHT22;51092;50.874;7.024;2023-09-08T00:17:50;18.10;99.90
30889;DHT22;51092;50.874;7.024;2023-09-08T00:18:53;18.10;99.90
30889;DHT22;51092;50.874;7.024;2023-09-08T00:19:56;18.10;99.90
30889;DHT22;51092;50.874;7.024;2023-09-08T00:20:58;18.00;99.90
30889;DHT22;51092;50.874;7.024;2023-09-08T00:22:00;18.00;99.90
30889;DHT22;51092;50.874;7.024;2023-09-08T00:23:01;18.00;99.90
30889;DHT22;51092;50.874;7.024;2023-09-08T00:24:04;18.00;99.90
30889;DHT22;51092;50.874;7.024;2023-09-08T00:25:06;18.00;99.90
30889;DHT22;51092;50.874;7.024;2023-09-08T00:26:09;18.00;99.90
30889;DHT22;51092;50.874;7.024;2023-09-08T00:27:10;18.00;99.90
30889;DHT22;51092;50.874;7.024;2023-09-08T00:28:13;18.00;99.90
30889;DHT22;51092;50.874;7.024;2023-09-08T00:29:14;18.00;99.90
30889;DHT22;51092;50.874;7.024;2023-09-08T00:30:17;18.00;99.90
30889;DHT22;51092;50.874;7.024;2023-09-08T00:31:18;17.90;99.90
30889;DHT22;51092;50.874;7.024;2023-09-08T00:32:19;17.90;99.90
30889;DHT22;51092;50.874;7.024;2023-09-08T00:33:23;17.90;99.90
30889;DHT22;51092;50.874;7.024;2023-09-08T00:34:25;17.90;99.90
30889;DHT22;51092;50.874;7.024;2023-09-08T00:35:27;17.90;99.90
30889;DHT22;51092;50.874;7.024;2023-09-08T00:36:29;17.80;99.90
30889;DHT22;51092;50.874;7.024;2023-09-08T00:37:31;17.80;99.90
30889;DHT22;51092;50.874;7.024;2023-09-08T00:38:33;17.80;99.90
30889;DHT22;51092;50.874;7.024;2023-09-08T00:39:35;17.80;99.90
30889;DHT22;51092;50.874;7.024;2023-09-08T00:40:37;17.80;99.90
30889;DHT22;51092;50.874;7.024;2023-09-08T00:41:39;17.90;99.90
30889;DHT22;51092;50.874;7.024;2023-09-08T00:42:40;17.90;99.90
30889;DHT22;51092;50.874;7.024;2023-09-08T00:43:43;17.90;99.90
30889;DHT22;51092;50.874;7.024;2023-09-08T00:44:44;17.90;99.90
30889;DHT22;51092;50.874;7.024;2023-09-08T00:45:48;17.80;99.90
30889;DHT22;51092;50.874;7.024;2023-09-08T00:46:50;17.80;99.90
30889;DHT22;51092;50.874;7.024;2023-09-08T00:47:52;17.80;99.90
30889;DHT22;51092;50.874;7.024;2023-09-08T00:48:55;17.80;99.90
30889;DHT22;51092;50.874;7.024;2023-09-08T00:49:57;17.80;99.90
30889;DHT22;51092;50.874;7.024;2023-09-08T00:51:00;17.80;99.90
30889;DHT22;51092;50.874;7.024;2023-09-08T00:52:01;17.70;99.90
30889;DHT22;51092;50.874;7.024;2023-09-08T00:53:04;17.70;99.90
30889;DHT22;51092;50.874;7.024;2023-09-08T00:54:06;17.70;99.90
30889;DHT22;51092;50.874;7.024;2023-09-08T00:55:08;17.70;99.90
30889;DHT22;51092;50.874;7.024;2023-09-08T00:56:10;17.70;99.90
30889;DHT22;51092;50.874;7.024;2023-09-08T00:57:13;17.70;99.90
30889;DHT22;51092;50.874;7.024;2023-09-08T00:58:15;17.60;99.90
30889;DHT22;51092;50.874;7.024;2023-09-08T00:59:17;17.60;99.90
30889;DHT22;51092;50.874;7.024;2023-09-08T01:00:19;17.60;99.90
30889;DHT22;51092;50.874;7.024;2023-09-08T01:01:22;17.70;99.90
30889;DHT22;51092;50.874;7.024;2023-09-08T01:02:23;17.70;99.90
30889;DHT22;51092;50.874;7.024;2023-09-08T01:03:26;17.70;99.90
30889;DHT22;51092;50.874;7.024;2023-09-08T01:04:28;17.70;99.90
30889;DHT22;51092;50.874;7.024;2023-09-08T01:05:32;17.70;99.90
30889;DHT22;51092;50.874;7.024;2023-09-08T01:06:33;17.70;99.90
30889;DHT22;51092;50.874;7.024;2023-09-08T01:07:36;17.70;99.90
30889;DHT22;51092;50.874;7.024;2023-09-08T01:08:38;17.60;99.90
30889;DHT22;51092;50.874;7.024;2023-09-08T01:09:41;17.60;99.90
30889;DHT22;51092;50.874;7.024;2023-09-08T01:10:42;17.60;99.90
30889;DHT22;51092;50.874;7.024;2023-09-08T01:11:44;17.60;99.90
30889;DHT22;51092;50.874;7.024;2023-09-08T01:12:47;17.50;99.90
30889;DHT22;51092;50.874;7.024;2023-09-08T01:13:48;17.50;99.90
30889;DHT22;51092;50.874;7.024;2023-09-08T01:14:50;17.50;99.90
30889;DHT22;51092;50.874;7.024;2023-09-08T01:15:52;17.50;99.90
30889;DHT22;51092;50.874;7.024;2023-09-08T01:16:55;17.50;99.90
30889;DHT22;51092;50.874;7.024;2023-09-08T01:17:56;17.40;99.90
30889;DHT22;51092;50.874;7.024;2023-09-08T01:18:59;17.50;99.90
30889;DHT22;51092;50.874;7.024;2023-09-08T01:20:06;17.50;99.90
30889;DHT22;51092;50.874;7.024;2023-09-08T01:21:34;17.50;99.90
30889;DHT22;51092;50.874;7.024;2023-09-08T01:22:55;17.40;99.90
30889;DHT22;51092;50.874;7.024;2023-09-08T01:24:11;17.50;99.90
30889;DHT22;51092;50.874;7.024;2023-09-08T01:25:21;17.50;99.90
30889;DHT22;51092;50.874;7.024;2023-09-08T01:26:27;17.50;99.90
30889;DHT22;51092;50.874;7.024;2023-09-08T01:27:33;17.50;99.90
30889;DHT22;51092;50.874;7.024;2023-09-08T01:28:34;17.50;99.90
30889;DHT22;51092;50.874;7.024;2023-09-08T01:29:38;17.50;99.90
30889;DHT22;51092;50.874;7.024;2023-09-08T01:30:41;17.40;99.90
30889;DHT22;51092;50.874;7.024;2023-09-08T01:31:43;17.40;99.90
30889;DHT22;51092;50.874;7.024;2023-09-08T01:32:45;17.40;99.90
30889;DHT22;51092;50.874;7.024;2023-09-08T01:33:48;17.40;99.90
30889;DHT22;51092;50.874;7.024;2023-09-08T01:34:50;17.40;99.90
30889;DHT22;51092;50.874;7.024;2023-09-08T01:35:53;17.40;99.90
30889;DHT22;51092;50.874;7.024;2023-09-08T01:36:55;17.40;99.90
30889;DHT22;51092;50.874;7.024;2023-09-08T01:37:58;17.40;99.90
30889;DHT22;51092;50.874;7.024;2023-09-08T01:39:01;17.30;99.90
30889;DHT22;51092;50.874;7.024;2023-09-08T01:40:03;17.30;99.90
30889;DHT22;51092;50.874;7.024;2023-09-08T01:41:07;17.30;99.90
30889;DHT22;51092;50.874;7.024;2023-09-08T01:42:09;17.30;99.90
30889;DHT22;51092;50.874;7.024;2023-09-08T01:43:11;17.30;99.90
30889;DHT22;51092;50.874;7.024;2023-09-08T01:44:12;17.30;99.90
30889;DHT22;51092;50.874;7.024;2023-09-08T01:45:15;17.30;99.90
30889;DHT22;51092;50.874;7.024;2023-09-08T01:46:16;17.40;99.90
30889;DHT22;51092;50.874;7.024;2023-09-08T01:47:19;17.30;99.90
30889;DHT22;51092;50.874;7.024;2023-09-08T01:48:20;17.40;99.90
30889;DHT22;51092;50.874;7.024;2023-09-08T01:49:23;17.40;99.90
30889;DHT22;51092;50.874;7.024;2023-09-08T01:50:24;17.30;99.90
30889;DHT22;51092;50.874;7.024;2023-09-08T01:51:27;17.30;99.90
30889;DHT22;51092;50.874;7.024;2023-09-08T01:52:28;17.30;99.90
30889;DHT22;51092;50.874;7.024;2023-09-08T01:53:31;17.30;99.90
30889;DHT22;51092;50.874;7.024;2023-09-08T01:54:32;17.20;99.90
30889;DHT22;51092;50.874;7.024;2023-09-08T01:55:34;17.20;99.90
30889;DHT22;51092;50.874;7.024;2023-09-08T01:56:37;17.20;99.90
30889;DHT22;51092;50.874;7.024;2023-09-08T01:57:40;17.20;99.90
30889;DHT22;51092;50.874;7.024;2023-09-08T01:58:41;17.10;99.90
30889;DHT22;51092;50.874;7.024;2023-09-08T01:59:44;17.20;99.90
30889;DHT22;51092;50.874;7.024;2023-09-08T02:00:48;17.20;99.90
30889;DHT22;51092;50.874;7.024;2023-09-08T02:01:50;17.10;99.90
30889;DHT22;51092;50.874;7.024;2023-09-08T02:02:51;17.10;99.90
30889;DHT22;51092;50.874;7.024;2023-09-08T02:03:53;17.10;99.90
30889;DHT22;51092;50.874;7.024;2023-09-08T02:04:55;17.10;99.90
30889;DHT22;51092;50.874;7.024;2023-09-08T02:05:57;17.10;99.90
30889;DHT22;51092;50.874;7.024;2023-09-08T02:06:59;17.10;99.90
30889;DHT22;51092;50.874;7.024;2023-09-08T02:08:03;17.10;99.90
30889;DHT22;51092;50.874;7.024;2023-09-08T02:09:05;17.10;99.90
30889;DHT22;51092;50.874;7.024;2023-09-08T02:10:06;17.00;99.90
30889;DHT22;51092;50.874;7.024;2023-09-08T02:11:09;17.00;99.90
30889;DHT22;51092;50.874;7.024;2023-09-08T02:12:12;17.00;99.90
30889;DHT22;51092;50.874;7.024;2023-09-08T02:13:14;17.00;99.90
30889;DHT22;51092;50.874;7.024;2023-09-08T02:14:16;17.00;99.90
30889;DHT22;51092;50.874;7.024;2023-09-08T02:15:17;16.90;99.90
30889;DHT22;51092;50.874;7.024;2023-09-08T02:16:20;16.90;99.90
30889;DHT22;51092;50.874;7.024;2023-09-08T02:17:21;16.90;99.90
30889;DHT22;51092;50.874;7.024;2023-09-08T02:18:29;16.90;99.90
30889;DHT22;51092;50.874;7.024;2023-09-08T02:19:31;16.90;99.90
30889;DHT22;51092;50.874;7.024;2023-09-08T02:20:33;16.90;99.90
30889;DHT22;51092;50.874;7.024;2023-09-08T02:21:35;16.90;99.90
30889;DHT22;51092;50.874;7.024;2023-09-08T02:22:37;16.90;99.90
30889;DHT22;51092;50.874;7.024;2023-09-08T02:23:38;16.90;99.90
30889;DHT22;51092;50.874;7.024;2023-09-08T02:24:41;16.90;99.90
30889;DHT22;51092;50.874;7.024;2023-09-08T02:25:42;16.90;99.90
30889;DHT22;51092;50.874;7.024;2023-09-08T02:26:45;16.90;99.90
30889;DHT22;51092;50.874;7.024;2023-09-08T02:27:48;16.90;99.90
30889;DHT22;51092;50.874;7.024;2023-09-08T02:28:50;16.80;99.90
30889;DHT22;51092;50.874;7.024;2023-09-08T02:29:51;16.80;99.90
30889;DHT22;51092;50.874;7.024;2023-09-08T02:30:54;16.80;99.90
30889;DHT22;51092;50.874;7.024;2023-09-08T02:31:55;16.80;99.90
30889;DHT22;51092;50.874;7.024;2023-09-08T02:32:58;16.80;99.90
30889;DHT22;51092;50.874;7.024;2023-09-08T02:34:00;16.80;99.90
30889;DHT22;51092;50.874;7.024;2023-09-08T02:35:01;16.80;99.90
30889;DHT22;51092;50.874;7.024;2023-09-08T02:36:04;16.80;99.90
30889;DHT22;51092;50.874;7.024;2023-09-08T02:37:06;16.80;99.90
30889;DHT22;51092;50.874;7.024;2023-09-08T02:38:08;16.80;99.90
30889;DHT22;51092;50.874;7.024;2023-09-08T02:39:10;16.90;99.90
30889;DHT22;51092;50.874;7.024;2023-09-08T02:40:12;16.90;99.90
30889;DHT22;51092;50.874;7.024;2023-09-08T02:41:14;16.80;99.90
30889;DHT22;51092;50.874;7.024;2023-09-08T02:42:16;16.80;99.90
30889;DHT22;51092;50.874;7.024;2023-09-08T02:43:19;16.80;99.90
30889;DHT22;51092;50.874;7.024;2023-09-08T02:44:22;16.80;99.90
30889;DHT22;51092;50.874;7.024;2023-09-08T02:45:23;16.80;99.90
30889;DHT22;51092;50.874;7.024;2023-09-08T02:46:26;16.80;99.90
30889;DHT22;51092;50.874;7.024;2023-09-08T02:47:27;16.80;99.90
30889;DHT22;51092;50.874;7.024;2023-09-08T02:48:30;16.80;99.90
30889;DHT22;51092;50.874;7.024;2023-09-08T02:49:31;16.80;99.90
30889;DHT22;51092;50.874;7.024;2023-09-08T02:50:33;16.80;99.90
30889;DHT22;51092;50.874;7.024;2023-09-08T02:51:35;16.80;99.90
30889;DHT22;51092;50.874;7.024;2023-09-08T02:52:37;16.80;99.90
30889;DHT22;51092;50.874;7.024;2023-09-08T02:53:39;16.80;99.90
30889;DHT22;51092;50.874;7.024;2023-09-08T02:54:41;16.80;99.90
30889;DHT22;51092;50.874;7.024;2023-09-08T02:55:43;16.80;99.90
30889;DHT22;51092;50.874;7.024;2023-09-08T02:56:44;16.80;99.90
30889;DHT22;51092;50.874;7.024;2023-09-08T02:57:47;16.80;99.90
30889;DHT22;51092;50.874;7.024;2023-09-08T02:58:50;16.80;99.90
30889;DHT22;51092;50.874;7.024;2023-09-08T02:59:52;16.80;99.90
30889;DHT22;51092;50.874;7.024;2023-09-08T03:00:54;16.80;99.90
30889;DHT22;51092;50.874;7.024;2023-09-08T03:01:55;16.70;99.90
30889;DHT22;51092;50.874;7.024;2023-09-08T03:02:57;16.80;99.90
30889;DHT22;51092;50.874;7.024;2023-09-08T03:03:59;16.80;99.90
30889;DHT22;51092;50.874;7.024;2023-09-08T03:05:00;16.70;99.90
30889;DHT22;51092;50.874;7.024;2023-09-08T03:06:03;16.80;99.90
30889;DHT22;51092;50.874;7.024;2023-09-08T03:07:04;16.80;99.90
30889;DHT22;51092;50.874;7.024;2023-09-08T03:08:05;16.70;99.90
30889;DHT22;51092;50.874;7.024;2023-09-08T03:09:07;16.80;99.90
30889;DHT22;51092;50.874;7.024;2023-09-08T03:10:09;16.80;99.90
30889;DHT22;51092;50.874;7.024;2023-09-08T03:11:12;16.80;99.90
30889;DHT22;51092;50.874;7.024;2023-09-08T03:12:14;16.80;99.90
30889;DHT22;51092;50.874;7.024;2023-09-08T03:13:16;16.80;99.90
30889;DHT22;51092;50.874;7.024;2023-09-08T03:14:19;16.80;99.90
30889;DHT22;51092;50.874;7.024;2023-09-08T03:15:21;16.70;99.90
30889;DHT22;51092;50.874;7.024;2023-09-08T03:16:23;16.70;99.90
30889;DHT22;51092;50.874;7.024;2023-09-08T03:17:25;16.70;99.90
30889;DHT22;51092;50.874;7.024;2023-09-08T03:18:27;16.70;99.90
30889;DHT22;51092;50.874;7.024;2023-09-08T03:19:29;16.70;99.90
30889;DHT22;51092;50.874;7.024;2023-09-08T03:20:31;16.70;99.90
30889;DHT22;51092;50.874;7.024;2023-09-08T03:21:33;16.70;99.90
30889;DHT22;51092;50.874;7.024;2023-09-08T03:22:35;16.70;99.90
30889;DHT22;51092;50.874;7.024;2023-09-08T03:23:37;16.70;99.90
30889;DHT22;51092;50.874;7.024;2023-09-08T03:24:39;16.70;99.90
30889;DHT22;51092;50.874;7.024;2023-09-08T03:25:41;16.70;99.90
30889;DHT22;51092;50.874;7.024;2023-09-08T03:26:42;16.70;99.90
30889;DHT22;51092;50.874;7.024;2023-09-08T03:27:45;16.80;99.90
30889;DHT22;51092;50.874;7.024;2023-09-08T03:28:46;16.70;99.90
30889;DHT22;51092;50.874;7.024;2023-09-08T03:29:50;16.80;99.90
30889;DHT22;51092;50.874;7.024;2023-09-08T03:30:52;16.70;99.90
30889;DHT22;51092;50.874;7.024;2023-09-08T03:31:54;16.70;99.90
30889;DHT22;51092;50.874;7.024;2023-09-08T03:32:55;16.80;99.90
30889;DHT22;51092;50.874;7.024;2023-09-08T03:33:58;16.70;99.90
30889;DHT22;51092;50.874;7.024;2023-09-08T03:34:59;16.70;99.90
30889;DHT22;51092;50.874;7.024;2023-09-08T03:36:02;16.70;99.90
30889;DHT22;51092;50.874;7.024;2023-09-08T03:37:04;16.70;99.90
30889;DHT22;51092;50.874;7.024;2023-09-08T03:38:06;16.70;99.90
30889;DHT22;51092;50.874;7.024;2023-09-08T03:39:08;16.70;99.90
30889;DHT22;51092;50.874;7.024;2023-09-08T03:40:11;16.70;99.90
30889;DHT22;51092;50.874;7.024;2023-09-08T03:41:12;16.70;99.90
30889;DHT22;51092;50.874;7.024;2023-09-08T03:42:15;16.70;99.90
30889;DHT22;51092;50.874;7.024;2023-09-08T03:43:16;16.70;99.90
30889;DHT22;51092;50.874;7.024;2023-09-08T03:44:18;16.60;99.90
30889;DHT22;51092;50.874;7.024;2023-09-08T03:45:21;16.60;99.90
30889;DHT22;51092;50.874;7.024;2023-09-08T03:46:24;16.50;99.90
30889;DHT22;51092;50.874;7.024;2023-09-08T03:47:26;16.50;99.90
30889;DHT22;51092;50.874;7.024;2023-09-08T03:48:28;16.50;99.90
30889;DHT22;51092;50.874;7.024;2023-09-08T03:49:30;16.40;99.90
30889;DHT22;51092;50.874;7.024;2023-09-08T03:50:32;16.40;99.90
30889;DHT22;51092;50.874;7.024;2023-09-08T03:51:34;16.50;99.90
30889;DHT22;51092;50.874;7.024;2023-09-08T03:52:36;16.40;99.90
30889;DHT22;51092;50.874;7.024;2023-09-08T03:53:38;16.50;99.90
30889;DHT22;51092;50.874;7.024;2023-09-08T03:54:40;16.50;99.90
30889;DHT22;51092;50.874;7.024;2023-09-08T03:55:42;16.50;99.90
30889;DHT22;51092;50.874;7.024;2023-09-08T03:56:43;16.50;99.90
30889;DHT22;51092;50.874;7.024;2023-09-08T03:57:45;16.60;99.90
30889;DHT22;51092;50.874;7.024;2023-09-08T03:58:47;16.50;99.90
30889;DHT22;51092;50.874;7.024;2023-09-08T03:59:50;16.60;99.90
30889;DHT22;51092;50.874;7.024;2023-09-08T04:00:52;16.60;99.90
30889;DHT22;51092;50.874;7.024;2023-09-08T04:01:55;16.60;99.90
30889;DHT22;51092;50.874;7.024;2023-09-08T04:02:56;16.60;99.90
30889;DHT22;51092;50.874;7.024;2023-09-08T04:03:59;16.50;99.90
30889;DHT22;51092;50.874;7.024;2023-09-08T04:05:00;16.60;99.90
30889;DHT22;51092;50.874;7.024;2023-09-08T04:06:03;16.50;99.90
30889;DHT22;51092;50.874;7.024;2023-09-08T04:07:05;16.50;99.90
30889;DHT22;51092;50.874;7.024;2023-09-08T04:08:07;16.50;99.90
30889;DHT22;51092;50.874;7.024;2023-09-08T04:09:09;16.50;99.90
30889;DHT22;51092;50.874;7.024;2023-09-08T04:10:11;16.50;99.90
30889;DHT22;51092;50.874;7.024;2023-09-08T04:11:13;16.50;99.90
30889;DHT22;51092;50.874;7.024;2023-09-08T04:12:16;16.50;99.90
30889;DHT22;51092;50.874;7.024;2023-09-08T04:13:20;16.40;99.90
30889;DHT22;51092;50.874;7.024;2023-09-08T04:14:23;16.40;99.90
30889;DHT22;51092;50.874;7.024;2023-09-08T04:15:24;16.40;99.90
30889;DHT22;51092;50.874;7.024;2023-09-08T04:16:28;16.30;99.90
30889;DHT22;51092;50.874;7.024;2023-09-08T04:17:30;16.30;99.90
30889;DHT22;51092;50.874;7.024;2023-09-08T04:18:31;16.30;99.90
30889;DHT22;51092;50.874;7.024;2023-09-08T04:19:34;16.30;99.90
30889;DHT22;51092;50.874;7.024;2023-09-08T04:20:35;16.30;99.90
30889;DHT22;51092;50.874;7.024;2023-09-08T04:21:38;16.40;99.90
30889;DHT22;51092;50.874;7.024;2023-09-08T04:22:40;16.40;99.90
30889;DHT22;51092;50.874;7.024;2023-09-08T04:23:42;16.30;99.90
30889;DHT22;51092;50.874;7.024;2023-09-08T04:24:44;16.30;99.90
30889;DHT22;51092;50.874;7.024;2023-09-08T04:25:46;16.30;99.90
30889;DHT22;51092;50.874;7.024;2023-09-08T04:26:48;16.30;99.90
30889;DHT22;51092;50.874;7.024;2023-09-08T04:27:50;16.30;99.90
30889;DHT22;51092;50.874;7.024;2023-09-08T04:28:52;16.30;99.90
30889;DHT22;51092;50.874;7.024;2023-09-08T04:29:54;16.30;99.90
30889;DHT22;51092;50.874;7.024;2023-09-08T04:30:56;16.30;99.90
30889;DHT22;51092;50.874;7.024;2023-09-08T04:31:59;16.30;99.90
30889;DHT22;51092;50.874;7.024;2023-09-08T04:33:02;16.30;99.90
30889;DHT22;51092;50.874;7.024;2023-09-08T04:34:03;16.30;99.90
30889;DHT22;51092;50.874;7.024;2023-09-08T04:35:06;16.20;99.90
30889;DHT22;51092;50.874;7.024;2023-09-08T04:36:08;16.30;99.90
30889;DHT22;51092;50.874;7.024;2023-09-08T04:37:12;16.30;99.90
30889;DHT22;51092;50.874;7.024;2023-09-08T04:38:13;16.40;99.90
30889;DHT22;51092;50.874;7.024;2023-09-08T04:39:16;16.40;99.90
30889;DHT22;51092;50.874;7.024;2023-09-08T04:40:17;16.40;99.90
30889;DHT22;51092;50.874;7.024;2023-09-08T04:41:19;16.40;99.90
30889;DHT22;51092;50.874;7.024;2023-09-08T04:42:21;16.40;99.90
30889;DHT22;51092;50.874;7.024;2023-09-08T04:43:24;16.40;99.90
30889;DHT22;51092;50.874;7.024;2023-09-08T04:44:26;16.40;99.90
30889;DHT22;51092;50.874;7.024;2023-09-08T04:45:28;16.40;99.90
30889;DHT22;51092;50.874;7.024;2023-09-08T04:46:30;16.50;99.90
30889;DHT22;51092;50.874;7.024;2023-09-08T04:47:33;16.50;99.90
30889;DHT22;51092;50.874;7.024;2023-09-08T04:48:34;16.50;99.90
30889;DHT22;51092;50.874;7.024;2023-09-08T04:49:36;16.40;99.90
30889;DHT22;51092;50.874;7.024;2023-09-08T04:50:38;16.40;99.90
30889;DHT22;51092;50.874;7.024;2023-09-08T04:51:39;16.40;99.90
30889;DHT22;51092;50.874;7.024;2023-09-08T04:52:41;16.50;99.90
30889;DHT22;51092;50.874;7.024;2023-09-08T04:53:43;16.50;99.90
30889;DHT22;51092;50.874;7.024;2023-09-08T04:54:45;16.40;99.90
30889;DHT22;51092;50.874;7.024;2023-09-08T04:55:47;16.40;99.90
30889;DHT22;51092;50.874;7.024;2023-09-08T04:56:49;16.40;99.90
30889;DHT22;51092;50.874;7.024;2023-09-08T04:57:50;16.50;99.90
30889;DHT22;51092;50.874;7.024;2023-09-08T04:58:53;16.50;99.90
30889;DHT22;51092;50.874;7.024;2023-09-08T04:59:56;16.50;99.90
30889;DHT22;51092;50.874;7.024;2023-09-08T05:00:58;16.40;99.90
30889;DHT22;51092;50.874;7.024;2023-09-08T05:02:00;16.50;99.90
30889;DHT22;51092;50.874;7.024;2023-09-08T05:03:04;16.50;99.90
30889;DHT22;51092;50.874;7.024;2023-09-08T05:04:05;16.50;99.90
30889;DHT22;51092;50.874;7.024;2023-09-08T05:05:08;16.60;99.90
30889;DHT22;51092;50.874;7.024;2023-09-08T05:06:09;16.50;99.90
30889;DHT22;51092;50.874;7.024;2023-09-08T05:07:12;16.60;99.90
30889;DHT22;51092;50.874;7.024;2023-09-08T05:08:14;16.50;99.90
30889;DHT22;51092;50.874;7.024;2023-09-08T05:09:17;16.50;99.90
30889;DHT22;51092;50.874;7.024;2023-09-08T05:10:18;16.50;99.90
30889;DHT22;51092;50.874;7.024;2023-09-08T05:11:20;16.40;99.90
30889;DHT22;51092;50.874;7.024;2023-09-08T05:12:22;16.40;99.90
30889;DHT22;51092;50.874;7.024;2023-09-08T05:13:24;16.40;99.90
30889;DHT22;51092;50.874;7.024;2023-09-08T05:14:28;16.40;99.90
30889;DHT22;51092;50.874;7.024;2023-09-08T05:15:30;16.40;99.90
30889;DHT22;51092;50.874;7.024;2023-09-08T05:16:32;16.40;99.90
30889;DHT22;51092;50.874;7.024;2023-09-08T05:17:47;16.40;99.90
30889;DHT22;51092;50.874;7.024;2023-09-08T05:18:50;16.40;99.90
30889;DHT22;51092;50.874;7.024;2023-09-08T05:19:52;16.50;99.90
30889;DHT22;51092;50.874;7.024;2023-09-08T05:20:54;16.40;99.90
30889;DHT22;51092;50.874;7.024;2023-09-08T05:21:56;16.50;99.90
30889;DHT22;51092;50.874;7.024;2023-09-08T05:22:58;16.50;99.90
30889;DHT22;51092;50.874;7.024;2023-09-08T05:24:01;16.50;99.90
30889;DHT22;51092;50.874;7.024;2023-09-08T05:25:03;16.40;99.90
30889;DHT22;51092;50.874;7.024;2023-09-08T05:26:06;16.50;99.90
30889;DHT22;51092;50.874;7.024;2023-09-08T05:27:07;16.50;99.90
30889;DHT22;51092;50.874;7.024;2023-09-08T05:28:09;16.50;99.90
30889;DHT22;51092;50.874;7.024;2023-09-08T05:29:11;16.50;99.90
30889;DHT22;51092;50.874;7.024;2023-09-08T05:30:13;16.50;99.90
30889;DHT22;51092;50.874;7.024;2023-09-08T05:31:15;16.60;99.90
30889;DHT22;51092;50.874;7.024;2023-09-08T05:32:17;16.60;99.90
30889;DHT22;51092;50.874;7.024;2023-09-08T05:33:19;16.50;99.90
30889;DHT22;51092;50.874;7.024;2023-09-08T05:34:23;16.60;99.90
30889;DHT22;51092;50.874;7.024;2023-09-08T05:35:24;16.60;99.90
30889;DHT22;51092;50.874;7.024;2023-09-08T05:36:27;16.60;99.90
30889;DHT22;51092;50.874;7.024;2023-09-08T05:37:30;16.60;99.90
30889;DHT22;51092;50.874;7.024;2023-09-08T05:38:32;16.60;99.90
30889;DHT22;51092;50.874;7.024;2023-09-08T05:39:34;16.60;99.90
30889;DHT22;51092;50.874;7.024;2023-09-08T05:40:37;16.60;99.90
30889;DHT22;51092;50.874;7.024;2023-09-08T05:41:39;16.60;99.90
30889;DHT22;51092;50.874;7.024;2023-09-08T05:42:41;16.60;99.90
30889;DHT22;51092;50.874;7.024;2023-09-08T05:43:44;16.60;99.90
30889;DHT22;51092;50.874;7.024;2023-09-08T05:44:46;16.60;99.90
30889;DHT22;51092;50.874;7.024;2023-09-08T05:45:49;16.60;99.90
30889;DHT22;51092;50.874;7.024;2023-09-08T05:46:51;16.60;99.90
30889;DHT22;51092;50.874;7.024;2023-09-08T05:47:53;16.60;99.90
30889;DHT22;51092;50.874;7.024;2023-09-08T05:48:55;16.60;99.90
30889;DHT22;51092;50.874;7.024;2023-09-08T05:49:58;16.60;99.90
30889;DHT22;51092;50.874;7.024;2023-09-08T05:51:00;16.60;99.90
30889;DHT22;51092;50.874;7.024;2023-09-08T05:52:03;16.70;99.90
30889;DHT22;51092;50.874;7.024;2023-09-08T05:53:05;16.70;99.90
30889;DHT22;51092;50.874;7.024;2023-09-08T05:54:07;16.70;99.90
30889;DHT22;51092;50.874;7.024;2023-09-08T05:55:09;16.80;99.90
30889;DHT22;51092;50.874;7.024;2023-09-08T05:56:12;16.80;99.90
30889;DHT22;51092;50.874;7.024;2023-09-08T05:57:13;16.80;99.90
30889;DHT22;51092;50.874;7.024;2023-09-08T05:58:15;16.90;99.90
30889;DHT22;51092;50.874;7.024;2023-09-08T05:59:17;16.90;99.90
30889;DHT22;51092;50.874;7.024;2023-09-08T06:00:20;16.90;99.90
30889;DHT22;51092;50.874;7.024;2023-09-08T06:01:21;16.90;99.90
30889;DHT22;51092;50.874;7.024;2023-09-08T06:02:24;16.90;99.90
30889;DHT22;51092;50.874;7.024;2023-09-08T06:03:25;17.00;99.90
30889;DHT22;51092;50.874;7.024;2023-09-08T06:04:28;17.00;99.90
30889;DHT22;51092;50.874;7.024;2023-09-08T06:05:30;17.00;99.90
30889;DHT22;51092;50.874;7.024;2023-09-08T06:06:33;17.00;99.90
30889;DHT22;51092;50.874;7.024;2023-09-08T06:07:35;17.00;99.90
30889;DHT22;51092;50.874;7.024;2023-09-08T06:08:37;17.00;99.90
30889;DHT22;51092;50.874;7.024;2023-09-08T06:09:39;17.00;99.90
30889;DHT22;51092;50.874;7.024;2023-09-08T06:10:41;17.00;99.90
30889;DHT22;51092;50.874;7.024;2023-09-08T06:11:43;17.10;99.90
30889;DHT22;51092;50.874;7.024;2023-09-08T06:12:45;17.10;99.90
30889;DHT22;51092;50.874;7.024;2023-09-08T06:13:47;17.20;99.90
30889;DHT22;51092;50.874;7.024;2023-09-08T06:14:49;17.20;99.90
30889;DHT22;51092;50.874;7.024;2023-09-08T06:15:51;17.20;99.90
30889;DHT22;51092;50.874;7.024;2023-09-08T06:16:53;17.20;99.90
30889;DHT22;51092;50.874;7.024;2023-09-08T06:17:54;17.20;99.90
30889;DHT22;51092;50.874;7.024;2023-09-08T06:18:57;17.30;99.90
30889;DHT22;51092;50.874;7.024;2023-09-08T06:19:58;17.30;99.90
30889;DHT22;51092;50.874;7.024;2023-09-08T06:21:02;17.40;99.90
30889;DHT22;51092;50.874;7.024;2023-09-08T06:22:04;17.40;99.90
30889;DHT22;51092;50.874;7.024;2023-09-08T06:23:06;17.50;99.90
30889;DHT22;51092;50.874;7.024;2023-09-08T06:24:08;17.50;99.90
30889;DHT22;51092;50.874;7.024;2023-09-08T06:25:10;17.50;99.90
30889;DHT22;51092;50.874;7.024;2023-09-08T06:26:12;17.50;99.90
30889;DHT22;51092;50.874;7.024;2023-09-08T06:27:14;17.60;99.90
30889;DHT22;51092;50.874;7.024;2023-09-08T06:28:17;17.60;99.90
30889;DHT22;51092;50.874;7.024;2023-09-08T06:29:18;17.70;99.90
30889;DHT22;51092;50.874;7.024;2023-09-08T06:30:20;17.60;99.90
30889;DHT22;51092;50.874;7.024;2023-09-08T06:31:22;17.70;99.90
30889;DHT22;51092;50.874;7.024;2023-09-08T06:32:24;17.70;99.90
30889;DHT22;51092;50.874;7.024;2023-09-08T06:33:25;17.70;99.90